Terminal Aerodrome Forecast
Issued by NWS

Home | Current Version | Previous Version | Text Only | Print | Product List | Glossary On
Versions: 1 2 3 4 5 6 7 8 9 10 11 12
000
FTUS45 KVEF 310500
TAFHND
TAF
KHND 310529Z 3106/0106 17008KT P6SM FEW150 BKN250
     FM311500 VRB06KT P6SM SCT150 SCT250
     FM312000 18018G26KT P6SM FEW150 BKN250
     FM010200 19012KT P6SM FEW150 BKN250=

USA.gov is the U.S. government's official web portal to all federal, state and local government web resources and services.